sensor_id;sensor_type;location;lat;lon;timestamp;pressure;altitude;pressure_sealevel;temperature;humidity
72802;BME280;61891;55.818;37.084;2023-01-01T00:02:17;99092.38;;;1.90;79.19
72802;BME280;61891;55.818;37.084;2023-01-01T00:04:43;99070.88;;;1.86;78.96
72802;BME280;61891;55.818;37.084;2023-01-01T00:07:08;99066.47;;;1.87;79.43
72802;BME280;61891;55.818;37.084;2023-01-01T00:09:34;99058.41;;;1.90;79.15
72802;BME280;61891;55.818;37.084;2023-01-01T00:12:18;99028.94;;;1.77;78.92
72802;BME280;61891;55.818;37.084;2023-01-01T00:14:44;99012.56;;;1.64;79.16
72802;BME280;61891;55.818;37.084;2023-01-01T00:17:11;99048.78;;;1.90;79.08
72802;BME280;61891;55.818;37.084;2023-01-01T00:19:37;99037.03;;;1.85;79.15
72802;BME280;61891;55.818;37.084;2023-01-01T00:22:05;99025.16;;;1.70;78.95
72802;BME280;61891;55.818;37.084;2023-01-01T00:24:33;99029.78;;;1.88;79.15
72802;BME280;61891;55.818;37.084;2023-01-01T00:27:01;99029.53;;;1.91;79.50
72802;BME280;61891;55.818;37.084;2023-01-01T00:29:26;99045.91;;;1.93;79.21
72802;BME280;61891;55.818;37.084;2023-01-01T00:31:53;99026.09;;;1.91;79.13
72802;BME280;61891;55.818;37.084;2023-01-01T00:34:21;99020.50;;;1.96;78.98
72802;BME280;61891;55.818;37.084;2023-01-01T00:36:47;98982.88;;;1.76;79.18
72802;BME280;61891;55.818;37.084;2023-01-01T00:39:12;98989.28;;;1.83;78.97
72802;BME280;61891;55.818;37.084;2023-01-01T00:41:38;99015.28;;;1.96;79.09
72802;BME280;61891;55.818;37.084;2023-01-01T00:44:04;98987.72;;;1.91;79.24
72802;BME280;61891;55.818;37.084;2023-01-01T00:46:31;98991.50;;;1.99;79.16
72802;BME280;61891;55.818;37.084;2023-01-01T00:48:57;98993.28;;;1.98;79.21
72802;BME280;61891;55.818;37.084;2023-01-01T00:51:23;98985.69;;;1.95;79.20
72802;BME280;61891;55.818;37.084;2023-01-01T00:53:48;98972.66;;;1.84;79.01
72802;BME280;61891;55.818;37.084;2023-01-01T00:56:14;98990.44;;;2.01;78.91
72802;BME280;61891;55.818;37.084;2023-01-01T00:58:40;98927.28;;;1.74;78.88
72802;BME280;61891;55.818;37.084;2023-01-01T01:01:05;98969.66;;;2.00;78.71
72802;BME280;61891;55.818;37.084;2023-01-01T01:03:31;98953.25;;;1.98;78.77
72802;BME280;61891;55.818;37.084;2023-01-01T01:08:27;98958.94;;;2.03;78.66
72802;BME280;61891;55.818;37.084;2023-01-01T01:10:54;98923.47;;;1.89;78.81
72802;BME280;61891;55.818;37.084;2023-01-01T01:13:21;98907.31;;;1.84;78.90
72802;BME280;61891;55.818;37.084;2023-01-01T01:15:47;98908.97;;;1.85;78.79
72802;BME280;61891;55.818;37.084;2023-01-01T01:18:12;98941.59;;;2.02;78.76
72802;BME280;61891;55.818;37.084;2023-01-01T01:20:38;98914.19;;;1.85;78.62
72802;BME280;61891;55.818;37.084;2023-01-01T01:23:04;98933.63;;;2.03;78.80
72802;BME280;61891;55.818;37.084;2023-01-01T01:25:29;98939.22;;;1.99;78.74
72802;BME280;61891;55.818;37.084;2023-01-01T01:27:55;98908.16;;;1.84;78.63
72802;BME280;61891;55.818;37.084;2023-01-01T01:30:21;98934.97;;;1.98;78.68
72802;BME280;61891;55.818;37.084;2023-01-01T01:32:47;98930.19;;;2.03;78.72
72802;BME280;61891;55.818;37.084;2023-01-01T01:35:12;98925.66;;;2.05;78.50
72802;BME280;61891;55.818;37.084;2023-01-01T01:37:38;98881.81;;;1.76;78.72
72802;BME280;61891;55.818;37.084;2023-01-01T01:40:04;98913.09;;;1.99;78.60
72802;BME280;61891;55.818;37.084;2023-01-01T01:42:30;98915.47;;;2.02;78.63
72802;BME280;61891;55.818;37.084;2023-01-01T01:50:13;98892.69;;;1.92;78.42
72802;BME280;61891;55.818;37.084;2023-01-01T01:52:43;98840.03;;;1.65;78.80
72802;BME280;61891;55.818;37.084;2023-01-01T01:55:12;98834.00;;;1.65;78.71
72802;BME280;61891;55.818;37.084;2023-01-01T01:57:39;98877.00;;;1.92;78.95
72802;BME280;61891;55.818;37.084;2023-01-01T02:00:06;98900.56;;;2.13;78.50
72802;BME280;61891;55.818;37.084;2023-01-01T02:04:58;98896.28;;;2.12;78.41
72802;BME280;61891;55.818;37.084;2023-01-01T02:07:25;98820.88;;;1.76;78.75
72802;BME280;61891;55.818;37.084;2023-01-01T02:09:51;98871.34;;;2.08;78.54
72802;BME280;61891;55.818;37.084;2023-01-01T02:12:17;98887.88;;;2.09;78.48
72802;BME280;61891;55.818;37.084;2023-01-01T02:14:42;98879.66;;;2.13;78.65
72802;BME280;61891;55.818;37.084;2023-01-01T02:17:15;98820.06;;;1.75;78.66
72802;BME280;61891;55.818;37.084;2023-01-01T02:20:02;98888.56;;;2.11;78.54
72802;BME280;61891;55.818;37.084;2023-01-01T02:30:14;98866.25;;;2.07;78.65
72802;BME280;61891;55.818;37.084;2023-01-01T02:32:56;98879.91;;;2.10;78.75
72802;BME280;61891;55.818;37.084;2023-01-01T02:35:29;98839.13;;;1.87;78.58
72802;BME280;61891;55.818;37.084;2023-01-01T02:38:13;98805.91;;;1.78;78.80
72802;BME280;61891;55.818;37.084;2023-01-01T02:40:45;98840.38;;;2.04;78.89
72802;BME280;61891;55.818;37.084;2023-01-01T02:43:12;98829.09;;;2.03;79.06
72802;BME280;61891;55.818;37.084;2023-01-01T02:45:37;98828.56;;;2.09;78.96
72802;BME280;61891;55.818;37.084;2023-01-01T02:54:04;98813.03;;;2.08;79.04
72802;BME280;61891;55.818;37.084;2023-01-01T02:56:36;98833.03;;;2.18;79.14
72802;BME280;61891;55.818;37.084;2023-01-01T03:07:13;98836.22;;;2.22;78.94
72802;BME280;61891;55.818;37.084;2023-01-01T03:09:47;98842.16;;;2.24;78.85
72802;BME280;61891;55.818;37.084;2023-01-01T03:12:24;98825.66;;;2.23;78.85
72802;BME280;61891;55.818;37.084;2023-01-01T03:17:56;98809.13;;;2.23;78.98
72802;BME280;61891;55.818;37.084;2023-01-01T03:20:28;98786.38;;;2.14;79.29
72802;BME280;61891;55.818;37.084;2023-01-01T03:22:58;98778.16;;;2.18;79.07
72802;BME280;61891;55.818;37.084;2023-01-01T03:25:28;98771.25;;;2.17;78.92
72802;BME280;61891;55.818;37.084;2023-01-01T03:28:02;98737.66;;;1.92;79.16
72802;BME280;61891;55.818;37.084;2023-01-01T03:30:31;98771.97;;;2.19;78.95
72802;BME280;61891;55.818;37.084;2023-01-01T03:33:02;98729.97;;;1.90;78.91
72802;BME280;61891;55.818;37.084;2023-01-01T03:35:43;98778.47;;;2.25;79.14
72802;BME280;61891;55.818;37.084;2023-01-01T03:38:18;98774.97;;;2.15;79.11
72802;BME280;61891;55.818;37.084;2023-01-01T03:40:47;98718.75;;;1.79;79.03
72802;BME280;61891;55.818;37.084;2023-01-01T03:43:20;98735.25;;;2.00;79.22
72802;BME280;61891;55.818;37.084;2023-01-01T03:45:50;98755.69;;;2.16;79.41
72802;BME280;61891;55.818;37.084;2023-01-01T03:48:17;98740.28;;;2.13;79.53
72802;BME280;61891;55.818;37.084;2023-01-01T03:50:57;98756.28;;;2.19;79.22
72802;BME280;61891;55.818;37.084;2023-01-01T03:53:39;98757.09;;;2.20;79.63
72802;BME280;61891;55.818;37.084;2023-01-01T03:56:13;98757.09;;;2.20;79.48
72802;BME280;61891;55.818;37.084;2023-01-01T04:01:35;98744.84;;;2.20;79.56
72802;BME280;61891;55.818;37.084;2023-01-01T04:04:05;98748.31;;;2.21;79.53
72802;BME280;61891;55.818;37.084;2023-01-01T04:06:32;98739.50;;;2.22;79.45
72802;BME280;61891;55.818;37.084;2023-01-01T04:08:59;98717.31;;;2.16;79.81
72802;BME280;61891;55.818;37.084;2023-01-01T04:11:28;98732.47;;;2.22;79.40
72802;BME280;61891;55.818;37.084;2023-01-01T04:14:28;98737.06;;;2.30;79.78
72802;BME280;61891;55.818;37.084;2023-01-01T04:16:55;98718.72;;;2.20;79.62
72802;BME280;61891;55.818;37.084;2023-01-01T04:19:21;98692.69;;;2.19;79.60
72802;BME280;61891;55.818;37.084;2023-01-01T04:21:47;98712.75;;;2.39;79.52
72802;BME280;61891;55.818;37.084;2023-01-01T04:24:13;98675.53;;;2.26;79.39
72802;BME280;61891;55.818;37.084;2023-01-01T04:26:39;98714.00;;;2.45;79.66
72802;BME280;61891;55.818;37.084;2023-01-01T04:29:05;98720.19;;;2.44;79.55
72802;BME280;61891;55.818;37.084;2023-01-01T04:31:33;98665.13;;;2.05;79.19
72802;BME280;61891;55.818;37.084;2023-01-01T04:33:58;98693.13;;;2.24;79.20
72802;BME280;61891;55.818;37.084;2023-01-01T04:36:24;98723.78;;;2.43;79.45
72802;BME280;61891;55.818;37.084;2023-01-01T04:38:49;98711.47;;;2.34;79.24
72802;BME280;61891;55.818;37.084;2023-01-01T04:41:15;98709.03;;;2.42;79.33
72802;BME280;61891;55.818;37.084;2023-01-01T04:43:41;98708.34;;;2.40;79.31
72802;BME280;61891;55.818;37.084;2023-01-01T04:46:08;98700.88;;;2.35;79.53
72802;BME280;61891;55.818;37.084;2023-01-01T04:48:34;98689.56;;;2.25;79.30
72802;BME280;61891;55.818;37.084;2023-01-01T04:51:03;98696.88;;;2.31;79.47
72802;BME280;61891;55.818;37.084;2023-01-01T04:53:31;98668.47;;;2.17;79.26
72802;BME280;61891;55.818;37.084;2023-01-01T04:56:04;98667.56;;;2.28;79.48
72802;BME280;61891;55.818;37.084;2023-01-01T04:58:31;98704.38;;;2.45;79.58
72802;BME280;61891;55.818;37.084;2023-01-01T05:00:57;98606.88;;;1.93;79.59
72802;BME280;61891;55.818;37.084;2023-01-01T05:03:22;98620.16;;;2.11;79.28
72802;BME280;61891;55.818;37.084;2023-01-01T05:06:02;98677.53;;;2.43;79.12
72802;BME280;61891;55.818;37.084;2023-01-01T05:08:31;98682.22;;;2.49;79.21
72802;BME280;61891;55.818;37.084;2023-01-01T05:11:01;98699.00;;;2.47;79.05
72802;BME280;61891;55.818;37.084;2023-01-01T05:13:27;98686.75;;;2.47;79.27
72802;BME280;61891;55.818;37.084;2023-01-01T05:15:53;98690.47;;;2.45;79.27
72802;BME280;61891;55.818;37.084;2023-01-01T05:18:19;98663.41;;;2.25;79.27
72802;BME280;61891;55.818;37.084;2023-01-01T05:20:45;98699.72;;;2.49;79.64
72802;BME280;61891;55.818;37.084;2023-01-01T05:23:10;98666.34;;;2.32;79.44
72802;BME280;61891;55.818;37.084;2023-01-01T05:25:36;98673.25;;;2.42;79.50
72802;BME280;61891;55.818;37.084;2023-01-01T05:28:02;98661.66;;;2.35;79.32
72802;BME280;61891;55.818;37.084;2023-01-01T05:30:27;98657.34;;;2.24;79.78
72802;BME280;61891;55.818;37.084;2023-01-01T05:32:53;98690.06;;;2.49;79.42
72802;BME280;61891;55.818;37.084;2023-01-01T05:35:18;98676.03;;;2.50;79.59
72802;BME280;61891;55.818;37.084;2023-01-01T05:37:44;98666.94;;;2.45;79.35
72802;BME280;61891;55.818;37.084;2023-01-01T05:40:10;98666.50;;;2.40;79.64
72802;BME280;61891;55.818;37.084;2023-01-01T05:42:35;98649.03;;;2.40;79.79
72802;BME280;61891;55.818;37.084;2023-01-01T05:45:02;98662.25;;;2.48;79.48
72802;BME280;61891;55.818;37.084;2023-01-01T05:47:28;98659.50;;;2.50;79.74
72802;BME280;61891;55.818;37.084;2023-01-01T05:49:54;98655.63;;;2.44;79.77
72802;BME280;61891;55.818;37.084;2023-01-01T05:52:20;98632.59;;;2.29;79.85
72802;BME280;61891;55.818;37.084;2023-01-01T05:54:46;98660.03;;;2.44;80.04
72802;BME280;61891;55.818;37.084;2023-01-01T05:57:12;98650.53;;;2.43;80.01
72802;BME280;61891;55.818;37.084;2023-01-01T05:59:37;98650.16;;;2.47;80.04
72802;BME280;61891;55.818;37.084;2023-01-01T06:02:03;98648.22;;;2.49;80.19
72802;BME280;61891;55.818;37.084;2023-01-01T06:04:28;98654.28;;;2.50;80.24
72802;BME280;61891;55.818;37.084;2023-01-01T06:06:54;98639.69;;;2.47;80.17
72802;BME280;61891;55.818;37.084;2023-01-01T06:09:20;98631.69;;;2.49;80.07
72802;BME280;61891;55.818;37.084;2023-01-01T06:11:45;98634.19;;;2.50;80.05
72802;BME280;61891;55.818;37.084;2023-01-01T06:14:11;98632.25;;;2.52;80.29
72802;BME280;61891;55.818;37.084;2023-01-01T06:16:36;98619.75;;;2.56;79.98
72802;BME280;61891;55.818;37.084;2023-01-01T06:19:02;98611.47;;;2.51;80.27
72802;BME280;61891;55.818;37.084;2023-01-01T06:21:28;98624.84;;;2.57;79.92
72802;BME280;61891;55.818;37.084;2023-01-01T06:23:56;98628.28;;;2.58;80.08
72802;BME280;61891;55.818;37.084;2023-01-01T06:26:23;98629.81;;;2.61;79.71
72802;BME280;61891;55.818;37.084;2023-01-01T06:28:50;98621.94;;;2.61;80.05
72802;BME280;61891;55.818;37.084;2023-01-01T06:31:18;98580.72;;;2.34;80.15
72802;BME280;61891;55.818;37.084;2023-01-01T06:33:44;98579.94;;;2.43;79.70
72802;BME280;61891;55.818;37.084;2023-01-01T06:36:12;98617.84;;;2.68;80.00
72802;BME280;61891;55.818;37.084;2023-01-01T06:38:40;98600.91;;;2.72;80.07
72802;BME280;61891;55.818;37.084;2023-01-01T06:41:10;98598.13;;;2.64;79.97
72802;BME280;61891;55.818;37.084;2023-01-01T06:43:36;98600.47;;;2.67;79.94
72802;BME280;61891;55.818;37.084;2023-01-01T06:46:18;98553.66;;;2.44;80.05
72802;BME280;61891;55.818;37.084;2023-01-01T06:48:44;98600.06;;;2.71;80.13
72802;BME280;61891;55.818;37.084;2023-01-01T06:51:11;98598.41;;;2.70;80.09
72802;BME280;61891;55.818;37.084;2023-01-01T06:53:37;98606.97;;;2.72;80.17
72802;BME280;61891;55.818;37.084;2023-01-01T06:56:03;98600.63;;;2.75;79.95
72802;BME280;61891;55.818;37.084;2023-01-01T06:58:29;98593.75;;;2.74;80.17
72802;BME280;61891;55.818;37.084;2023-01-01T07:01:15;98580.50;;;2.66;80.04
72802;BME280;61891;55.818;37.084;2023-01-01T07:03:41;98607.38;;;2.87;80.18
72802;BME280;61891;55.818;37.084;2023-01-01T07:06:08;98591.28;;;2.91;79.89
72802;BME280;61891;55.818;37.084;2023-01-01T07:08:34;98585.34;;;2.89;79.98
72802;BME280;61891;55.818;37.084;2023-01-01T07:10:59;98595.41;;;2.94;80.01
72802;BME280;61891;55.818;37.084;2023-01-01T07:13:26;98568.13;;;2.87;80.01
72802;BME280;61891;55.818;37.084;2023-01-01T07:15:52;98567.31;;;2.86;79.77
72802;BME280;61891;55.818;37.084;2023-01-01T07:18:19;98584.09;;;3.03;79.75
72802;BME280;61891;55.818;37.084;2023-01-01T07:20:54;98561.66;;;2.91;80.00
72802;BME280;61891;55.818;37.084;2023-01-01T07:23:21;98592.66;;;3.05;79.81
72802;BME280;61891;55.818;37.084;2023-01-01T07:25:51;98576.94;;;2.96;79.73
72802;BME280;61891;55.818;37.084;2023-01-01T07:28:17;98577.91;;;3.04;79.83
72802;BME280;61891;55.818;37.084;2023-01-01T07:30:42;98567.03;;;2.99;79.98
72802;BME280;61891;55.818;37.084;2023-01-01T07:33:13;98567.72;;;3.01;79.96
72802;BME280;61891;55.818;37.084;2023-01-01T07:35:39;98505.06;;;2.71;79.93
72802;BME280;61891;55.818;37.084;2023-01-01T07:38:06;98544.31;;;2.90;79.75
72802;BME280;61891;55.818;37.084;2023-01-01T07:40:32;98549.81;;;2.97;79.78
72802;BME280;61891;55.818;37.084;2023-01-01T07:42:58;98548.69;;;2.99;80.12
72802;BME280;61891;55.818;37.084;2023-01-01T07:45:24;98542.22;;;3.03;80.13
72802;BME280;61891;55.818;37.084;2023-01-01T07:47:55;98543.06;;;2.94;80.14
72802;BME280;61891;55.818;37.084;2023-01-01T07:50:23;98512.34;;;2.77;79.89
72802;BME280;61891;55.818;37.084;2023-01-01T07:52:49;98571.13;;;3.21;79.97
72802;BME280;61891;55.818;37.084;2023-01-01T07:55:16;98567.28;;;3.25;80.27
72802;BME280;61891;55.818;37.084;2023-01-01T07:57:43;98565.47;;;3.26;80.02
72802;BME280;61891;55.818;37.084;2023-01-01T08:00:11;98567.28;;;3.25;79.84
72802;BME280;61891;55.818;37.084;2023-01-01T08:02:42;98568.50;;;3.31;80.14
72802;BME280;61891;55.818;37.084;2023-01-01T08:05:08;98547.16;;;3.26;80.02
72802;BME280;61891;55.818;37.084;2023-01-01T08:07:34;98555.97;;;3.34;79.94
72802;BME280;61891;55.818;37.084;2023-01-01T08:10:00;98574.16;;;3.36;79.95
72802;BME280;61891;55.818;37.084;2023-01-01T08:12:26;98570.84;;;3.34;79.94
72802;BME280;61891;55.818;37.084;2023-01-01T08:14:52;98531.59;;;3.24;79.88
72802;BME280;61891;55.818;37.084;2023-01-01T08:17:17;98559.81;;;3.30;79.86
72802;BME280;61891;55.818;37.084;2023-01-01T08:19:43;98554.56;;;3.40;79.84
72802;BME280;61891;55.818;37.084;2023-01-01T08:22:14;98567.66;;;3.40;79.89
72802;BME280;61891;55.818;37.084;2023-01-01T08:24:39;98551.25;;;3.38;80.00
72802;BME280;61891;55.818;37.084;2023-01-01T08:27:05;98544.66;;;3.34;79.77
72802;BME280;61891;55.818;37.084;2023-01-01T08:29:31;98533.91;;;3.37;79.98
72802;BME280;61891;55.818;37.084;2023-01-01T08:31:56;98541.22;;;3.33;80.26
72802;BME280;61891;55.818;37.084;2023-01-01T08:34:22;98512.53;;;3.32;80.28
72802;BME280;61891;55.818;37.084;2023-01-01T08:36:47;98511.97;;;3.38;80.19
72802;BME280;61891;55.818;37.084;2023-01-01T08:39:13;98511.28;;;3.36;80.16
72802;BME280;61891;55.818;37.084;2023-01-01T08:41:38;98529.19;;;3.40;80.46
72802;BME280;61891;55.818;37.084;2023-01-01T08:44:04;98516.94;;;3.41;80.09
72802;BME280;61891;55.818;37.084;2023-01-01T08:46:30;98528.38;;;3.40;80.34
72802;BME280;61891;55.818;37.084;2023-01-01T08:48:55;98514.63;;;3.28;80.22
72802;BME280;61891;55.818;37.084;2023-01-01T08:51:21;98534.16;;;3.43;80.36
72802;BME280;61891;55.818;37.084;2023-01-01T08:53:46;98516.53;;;3.36;80.23
72802;BME280;61891;55.818;37.084;2023-01-01T08:56:12;98519.94;;;3.46;80.67
72802;BME280;61891;55.818;37.084;2023-01-01T08:58:40;98521.75;;;3.45;80.54
72802;BME280;61891;55.818;37.084;2023-01-01T09:01:06;98480.72;;;3.27;80.32
72802;BME280;61891;55.818;37.084;2023-01-01T09:03:32;98522.97;;;3.51;80.28
72802;BME280;61891;55.818;37.084;2023-01-01T09:05:58;98520.19;;;3.52;80.50
72802;BME280;61891;55.818;37.084;2023-01-01T09:08:24;98485.34;;;3.42;80.62
72802;BME280;61891;55.818;37.084;2023-01-01T09:10:50;98483.94;;;3.48;80.44
72802;BME280;61891;55.818;37.084;2023-01-01T09:13:19;98484.75;;;3.58;80.49
72802;BME280;61891;55.818;37.084;2023-01-01T09:15:44;98463.81;;;3.48;80.46
72802;BME280;61891;55.818;37.084;2023-01-01T09:18:10;98450.88;;;3.47;80.34
72802;BME280;61891;55.818;37.084;2023-01-01T09:20:37;98475.91;;;3.59;80.35
72802;BME280;61891;55.818;37.084;2023-01-01T09:23:03;98471.50;;;3.60;80.38
72802;BME280;61891;55.818;37.084;2023-01-01T09:25:29;98468.59;;;3.63;80.47
72802;BME280;61891;55.818;37.084;2023-01-01T09:28:04;98390.50;;;3.11;80.26
72802;BME280;61891;55.818;37.084;2023-01-01T09:30:30;98450.88;;;3.47;80.49
72802;BME280;61891;55.818;37.084;2023-01-01T09:32:55;98470.53;;;3.61;80.76
72802;BME280;61891;55.818;37.084;2023-01-01T09:35:21;98450.88;;;3.47;80.36
72802;BME280;61891;55.818;37.084;2023-01-01T09:37:47;98439.41;;;3.48;80.38
72802;BME280;61891;55.818;37.084;2023-01-01T09:40:27;98445.03;;;3.53;80.49
72802;BME280;61891;55.818;37.084;2023-01-01T09:43:13;98463.19;;;3.64;80.38
72802;BME280;61891;55.818;37.084;2023-01-01T09:45:58;98456.44;;;3.62;80.36
72802;BME280;61891;55.818;37.084;2023-01-01T09:48:25;98454.13;;;3.59;80.44
72802;BME280;61891;55.818;37.084;2023-01-01T09:50:53;98437.03;;;3.54;80.55
72802;BME280;61891;55.818;37.084;2023-01-01T09:53:24;98457.38;;;3.70;80.79
72802;BME280;61891;55.818;37.084;2023-01-01T09:55:57;98460.13;;;3.69;80.31
72802;BME280;61891;55.818;37.084;2023-01-01T09:58:31;98393.56;;;3.34;80.50
72802;BME280;61891;55.818;37.084;2023-01-01T10:06:43;98428.94;;;3.75;80.28
72802;BME280;61891;55.818;37.084;2023-01-01T10:09:20;98434.72;;;3.79;80.34
72802;BME280;61891;55.818;37.084;2023-01-01T10:12:00;98432.47;;;3.84;80.31
72802;BME280;61891;55.818;37.084;2023-01-01T10:14:31;98399.28;;;3.75;80.32
72802;BME280;61891;55.818;37.084;2023-01-01T10:17:01;98398.94;;;3.87;80.24
72802;BME280;61891;55.818;37.084;2023-01-01T10:19:43;98404.03;;;3.89;80.35
72802;BME280;61891;55.818;37.084;2023-01-01T10:22:19;98391.59;;;3.91;80.19
72802;BME280;61891;55.818;37.084;2023-01-01T10:27:46;98392.13;;;3.95;80.29
72802;BME280;61891;55.818;37.084;2023-01-01T10:30:19;98389.34;;;3.96;80.09
72802;BME280;61891;55.818;37.084;2023-01-01T10:32:50;98374.88;;;3.92;80.01
72802;BME280;61891;55.818;37.084;2023-01-01T10:35:33;98392.78;;;3.97;80.11
72802;BME280;61891;55.818;37.084;2023-01-01T10:38:00;98356.69;;;3.91;79.87
72802;BME280;61891;55.818;37.084;2023-01-01T10:40:28;98368.91;;;4.00;80.20
72802;BME280;61891;55.818;37.084;2023-01-01T10:42:56;98380.34;;;3.99;80.24
72802;BME280;61891;55.818;37.084;2023-01-01T10:45:33;98350.16;;;3.95;80.45
72802;BME280;61891;55.818;37.084;2023-01-01T10:50:52;98365.69;;;4.06;80.21
72802;BME280;61891;55.818;37.084;2023-01-01T10:56:21;98365.97;;;4.03;80.31
72802;BME280;61891;55.818;37.084;2023-01-01T11:01:30;98350.63;;;4.08;80.26
72802;BME280;61891;55.818;37.084;2023-01-01T11:06:58;98364.41;;;4.10;79.97
72802;BME280;61891;55.818;37.084;2023-01-01T11:09:22;98356.69;;;4.08;80.30
72802;BME280;61891;55.818;37.084;2023-01-01T11:14:26;98324.63;;;3.97;80.09
72802;BME280;61891;55.818;37.084;2023-01-01T11:16:53;98328.81;;;4.07;80.39
72802;BME280;61891;55.818;37.084;2023-01-01T11:19:23;98346.72;;;4.12;80.09
72802;BME280;61891;55.818;37.084;2023-01-01T11:21:52;98331.88;;;4.03;80.29
72802;BME280;61891;55.818;37.084;2023-01-01T11:24:20;98344.91;;;4.12;80.51
72802;BME280;61891;55.818;37.084;2023-01-01T11:26:49;98333.59;;;4.12;79.97
72802;BME280;61891;55.818;37.084;2023-01-01T11:31:43;98333.75;;;4.10;80.05
72802;BME280;61891;55.818;37.084;2023-01-01T11:34:33;98329.84;;;4.14;80.53
72802;BME280;61891;55.818;37.084;2023-01-01T11:39:36;98332.03;;;4.19;80.45
72802;BME280;61891;55.818;37.084;2023-01-01T11:42:03;98308.22;;;4.12;80.66
72802;BME280;61891;55.818;37.084;2023-01-01T11:44:41;98320.56;;;4.20;80.65
72802;BME280;61891;55.818;37.084;2023-01-01T11:47:38;98324.53;;;4.24;80.80
72802;BME280;61891;55.818;37.084;2023-01-01T11:50:18;98300.34;;;4.12;80.82
72802;BME280;61891;55.818;37.084;2023-01-01T11:52:49;98314.69;;;4.26;80.84
72802;BME280;61891;55.818;37.084;2023-01-01T11:55:38;98305.19;;;4.25;80.65
72802;BME280;61891;55.818;37.084;2023-01-01T12:01:52;98309.47;;;4.26;80.86
72802;BME280;61891;55.818;37.084;2023-01-01T12:04:24;98308.47;;;4.27;80.67
72802;BME280;61891;55.818;37.084;2023-01-01T12:07:13;98296.03;;;4.29;80.84
72802;BME280;61891;55.818;37.084;2023-01-01T12:09:51;98291.47;;;4.31;80.78
72802;BME280;61891;55.818;37.084;2023-01-01T12:12:41;98300.00;;;4.33;81.01
72802;BME280;61891;55.818;37.084;2023-01-01T12:17:42;98305.91;;;4.35;80.98
72802;BME280;61891;55.818;37.084;2023-01-01T12:20:13;98276.84;;;4.29;80.77
72802;BME280;61891;55.818;37.084;2023-01-01T12:22:43;98251.03;;;4.16;80.61
72802;BME280;61891;55.818;37.084;2023-01-01T12:25:11;98282.31;;;4.35;80.74
72802;BME280;61891;55.818;37.084;2023-01-01T12:33:32;98284.00;;;4.44;80.75
72802;BME280;61891;55.818;37.084;2023-01-01T12:44:10;98287.28;;;4.46;80.70
72802;BME280;61891;55.818;37.084;2023-01-01T12:46:49;98287.13;;;4.48;81.00
72802;BME280;61891;55.818;37.084;2023-01-01T12:55:29;98257.50;;;4.30;80.93
72802;BME280;61891;55.818;37.084;2023-01-01T12:58:07;98271.56;;;4.46;80.96
72802;BME280;61891;55.818;37.084;2023-01-01T13:00:40;98268.94;;;4.46;81.24
72802;BME280;61891;55.818;37.084;2023-01-01T13:03:17;98154.13;;;3.80;80.98
72802;BME280;61891;55.818;37.084;2023-01-01T13:05:47;98151.13;;;3.75;81.04
72802;BME280;61891;55.818;37.084;2023-01-01T13:08:14;98266.00;;;4.49;80.96
72802;BME280;61891;55.818;37.084;2023-01-01T13:10:48;98266.50;;;4.53;81.24
72802;BME280;61891;55.818;37.084;2023-01-01T13:13:15;98253.03;;;4.48;80.93
72802;BME280;61891;55.818;37.084;2023-01-01T13:15:44;98265.69;;;4.52;81.00
72802;BME280;61891;55.818;37.084;2023-01-01T13:21:20;98238.44;;;4.45;81.21
72802;BME280;61891;55.818;37.084;2023-01-01T13:23:45;98257.50;;;4.56;81.18
72802;BME280;61891;55.818;37.084;2023-01-01T13:40:00;98228.78;;;4.54;80.94
72802;BME280;61891;55.818;37.084;2023-01-01T13:42:46;98240.47;;;4.60;81.01
72802;BME280;61891;55.818;37.084;2023-01-01T13:45:37;98248.19;;;4.61;81.10
72802;BME280;61891;55.818;37.084;2023-01-01T13:58:52;98244.09;;;4.67;81.40
72802;BME280;61891;55.818;37.084;2023-01-01T14:04:18;98240.50;;;4.68;81.34
72802;BME280;61891;55.818;37.084;2023-01-01T14:06:49;98238.53;;;4.70;81.16
72802;BME280;61891;55.818;37.084;2023-01-01T14:09:18;98219.00;;;4.64;81.14
72802;BME280;61891;55.818;37.084;2023-01-01T14:11:44;98185.63;;;4.48;81.25
72802;BME280;61891;55.818;37.084;2023-01-01T14:17:01;98151.47;;;4.32;81.16
72802;BME280;61891;55.818;37.084;2023-01-01T14:19:30;98187.97;;;4.60;81.38
72802;BME280;61891;55.818;37.084;2023-01-01T14:21:56;98199.50;;;4.67;81.16
72802;BME280;61891;55.818;37.084;2023-01-01T14:24:23;98202.97;;;4.75;81.50
72802;BME280;61891;55.818;37.084;2023-01-01T14:26:51;98204.78;;;4.75;81.49
72802;BME280;61891;55.818;37.084;2023-01-01T14:29:27;98147.75;;;4.43;81.39
72802;BME280;61891;55.818;37.084;2023-01-01T14:31:53;98166.63;;;4.54;81.36
72802;BME280;61891;55.818;37.084;2023-01-01T14:34:27;98200.81;;;4.71;81.62
72802;BME280;61891;55.818;37.084;2023-01-01T14:36:55;98180.81;;;4.70;81.89
72802;BME280;61891;55.818;37.084;2023-01-01T14:39:29;98181.31;;;4.73;81.88
72802;BME280;61891;55.818;37.084;2023-01-01T14:42:15;98148.91;;;4.48;81.89
72802;BME280;61891;55.818;37.084;2023-01-01T14:44:48;98201.00;;;4.77;81.89
72802;BME280;61891;55.818;37.084;2023-01-01T14:47:28;98201.81;;;4.78;81.95
72802;BME280;61891;55.818;37.084;2023-01-01T14:50:02;98200.03;;;4.78;81.79
72802;BME280;61891;55.818;37.084;2023-01-01T14:52:28;98174.06;;;4.67;81.82
72802;BME280;61891;55.818;37.084;2023-01-01T14:54:57;98193.78;;;4.79;82.07
72802;BME280;61891;55.818;37.084;2023-01-01T14:57:26;98177.53;;;4.76;81.74
72802;BME280;61891;55.818;37.084;2023-01-01T14:59:54;98184.44;;;4.77;82.00
72802;BME280;61891;55.818;37.084;2023-01-01T15:02:22;98193.78;;;4.79;82.21
72802;BME280;61891;55.818;37.084;2023-01-01T15:04:48;98190.03;;;4.82;82.26
72802;BME280;61891;55.818;37.084;2023-01-01T15:07:28;98130.34;;;4.42;82.11
72802;BME280;61891;55.818;37.084;2023-01-01T15:09:56;98199.22;;;4.86;81.90
72802;BME280;61891;55.818;37.084;2023-01-01T15:12:25;98199.22;;;4.86;82.04
72802;BME280;61891;55.818;37.084;2023-01-01T15:14:53;98173.47;;;4.81;82.05
72802;BME280;61891;55.818;37.084;2023-01-01T15:17:21;98177.22;;;4.79;82.05